Time;durP1;ratioP1;P1;durP2;ratioP2;P2;SDS_P1;SDS_P2;PMS_P1;PMS_P2;Temp;Humidity;BMP_temperature;BMP_pressure;BME280_temperature;BME280_humidity;BME280_pressure;Samples;Min_cycle;Max_cycle;Signal;HPM_P1;HPM_P2
2022/10/17 00:01:10;;;;;;;12.05;3.10;;;12.00;99.90;;;;;;5021603;28;20048;-47
2022/10/17 00:03:37;;;;;;;17.35;2.60;;;12.40;99.90;;;;;;5025386;28;20443;-49
2022/10/17 00:06:10;;;;;;;10.13;2.38;;;12.10;99.90;;;;;;5026150;28;20125;-47
2022/10/17 00:08:37;;;;;;;12.70;3.67;;;11.90;99.90;;;;;;5022961;28;20169;-45
2022/10/17 00:11:06;;;;;;;8.55;2.30;;;12.10;99.90;;;;;;5025529;28;20044;-47
2022/10/17 00:13:33;;;;;;;11.32;2.20;;;12.50;99.90;;;;;;5024236;28;20064;-50
2022/10/17 00:15:59;;;;;;;11.43;2.17;;;12.20;99.90;;;;;;5027242;28;20051;-50
2022/10/17 00:18:25;;;;;;;13.05;2.10;;;12.40;99.90;;;;;;5022748;28;20037;-48
2022/10/17 00:20:51;;;;;;;11.48;2.83;;;12.30;99.90;;;;;;5025672;28;20044;-46
2022/10/17 00:23:17;;;;;;;11.60;2.40;;;12.30;99.90;;;;;;5023972;28;20087;-50
2022/10/17 00:25:43;;;;;;;11.80;2.17;;;12.30;99.90;;;;;;5026887;28;20041;-49
2022/10/17 00:28:12;;;;;;;14.98;2.55;;;14.70;99.90;;;;;;5020702;28;20036;-46
2022/10/17 00:30:38;;;;;;;13.90;3.53;;;12.40;99.90;;;;;;5023352;28;20089;-47
2022/10/17 00:33:04;;;;;;;14.93;3.10;;;12.40;99.90;;;;;;5019790;28;20407;-48
2022/10/17 00:35:30;;;;;;;15.00;3.17;;;12.50;99.90;;;;;;5022259;28;20051;-47
2022/10/17 00:37:56;;;;;;;18.38;3.05;;;12.40;99.90;;;;;;5025046;28;20041;-48
2022/10/17 00:40:22;;;;;;;10.75;2.50;;;12.40;99.90;;;;;;5020830;28;20056;-46
2022/10/17 00:42:50;;;;;;;17.80;3.22;;;12.30;99.90;;;;;;5025843;28;20053;-46
2022/10/17 00:45:19;;;;;;;13.90;3.95;;;13.20;99.90;;;;;;5022391;28;20120;-48
2022/10/17 00:47:50;;;;;;;12.85;2.70;;;11.10;99.90;;;;;;5022964;28;20593;-46
2022/10/17 00:50:16;;;;;;;11.43;3.40;;;13.60;99.90;;;;;;5024033;28;20037;-47
2022/10/17 00:52:43;;;;;;;10.02;2.58;;;14.20;99.90;;;;;;5023795;28;20066;-45
2022/10/17 00:55:23;;;;;;;13.38;3.15;;;12.40;99.90;;;;;;5024787;28;20064;-51
2022/10/17 00:57:50;;;;;;;8.38;2.53;;;12.40;99.90;;;;;;5023494;28;20066;-46
2022/10/17 01:00:17;;;;;;;14.55;2.80;;;14.60;99.90;;;;;;5024571;28;20503;-46
2022/10/17 01:02:43;;;;;;;11.88;3.28;;;13.70;99.90;;;;;;5025230;28;20105;-51
2022/10/17 01:05:10;;;;;;;13.48;2.95;;;12.50;99.90;;;;;;5021941;28;20041;-48
2022/10/17 01:07:38;;;;;;;13.50;2.97;;;12.20;99.90;;;;;;5023394;28;20045;-47
2022/10/17 01:10:05;;;;;;;13.00;2.90;;;12.50;99.90;;;;;;5020765;28;20292;-45
2022/10/17 01:12:46;;;;;;;11.27;3.42;;;12.50;99.90;;;;;;5024679;28;20106;-48
2022/10/17 01:15:45;;;;;;;12.15;3.08;;;12.40;99.90;;;;;;5019614;28;20052;-47
2022/10/17 01:18:22;;;;;;;12.38;3.38;;;12.30;99.90;;;;;;5022592;28;20048;-47
2022/10/17 01:21:16;;;;;;;10.07;3.45;;;12.60;99.90;;;;;;5021991;28;20065;-46
2022/10/17 01:24:02;;;;;;;12.65;4.20;;;12.50;99.90;;;;;;5023774;28;20526;-47
2022/10/17 01:27:12;;;;;;;7.43;2.70;;;12.70;99.90;;;;;;5025268;28;20101;-49
2022/10/17 01:29:55;;;;;;;10.40;3.30;;;12.50;99.90;;;;;;5022203;28;20443;-47
2022/10/17 01:32:37;;;;;;;10.25;3.10;;;13.60;99.90;;;;;;5021911;28;20045;-49
2022/10/17 01:35:24;;;;;;;12.93;3.38;;;12.60;99.90;;;;;;5023850;28;20573;-48
2022/10/17 01:38:05;;;;;;;8.35;3.00;;;12.60;99.90;;;;;;5024246;28;20403;-50
2022/10/17 01:40:49;;;;;;;10.00;2.85;;;12.40;99.90;;;;;;5019501;28;20305;-50
2022/10/17 01:43:30;;;;;;;13.05;3.47;;;12.50;99.90;;;;;;5019298;28;20392;-46
2022/10/17 01:46:22;;;;;;;9.55;3.42;;;12.50;99.90;;;;;;5022520;28;20041;-46
2022/10/17 01:48:48;;;;;;;12.40;3.47;;;12.50;99.90;;;;;;5023394;28;20110;-49
2022/10/17 01:51:23;;;;;;;13.27;3.53;;;12.60;99.90;;;;;;5022808;28;20040;-51
2022/10/17 01:54:04;;;;;;;12.35;3.25;;;12.50;99.90;;;;;;5025166;28;20129;-50
2022/10/17 01:56:32;;;;;;;11.73;3.33;;;12.50;99.90;;;;;;5026299;28;20493;-48
2022/10/17 01:59:21;;;;;;;11.88;3.63;;;13.50;99.90;;;;;;5024420;28;20402;-49
2022/10/17 02:01:51;;;;;;;9.50;3.58;;;12.60;99.90;;;;;;5027970;28;20044;-50
2022/10/17 02:04:17;;;;;;;12.15;3.28;;;13.60;99.90;;;;;;5026686;28;20319;-46
2022/10/17 02:06:42;;;;;;;15.93;3.63;;;12.20;99.90;;;;;;5024162;28;20037;-50
2022/10/17 02:09:26;;;;;;;11.38;3.83;;;11.00;99.90;;;;;;5024458;28;20050;-48
2022/10/17 02:12:03;;;;;;;11.52;4.20;;;12.30;99.90;;;;;;5024003;28;20045;-50
2022/10/17 02:14:49;;;;;;;12.30;3.95;;;12.20;99.90;;;;;;5021469;28;20102;-49
2022/10/17 02:17:21;;;;;;;12.65;4.03;;;12.20;99.90;;;;;;5022346;28;20842;-48
2022/10/17 02:20:14;;;;;;;9.00;3.85;;;12.30;99.90;;;;;;5020692;28;20054;-48
2022/10/17 02:22:54;;;;;;;11.25;3.92;;;12.60;99.90;;;;;;5027422;28;20049;-48
2022/10/17 02:25:40;;;;;;;9.13;3.55;;;12.40;99.90;;;;;;5027199;28;20045;-50
2022/10/17 02:28:25;;;;;;;12.27;4.28;;;12.20;99.90;;;;;;5025713;28;20045;-49
2022/10/17 02:31:02;;;;;;;10.02;4.40;;;12.10;99.90;;;;;;5025658;28;20041;-47
2022/10/17 02:33:34;;;;;;;12.27;3.97;;;12.50;99.90;;;;;;5026351;28;20140;-48
2022/10/17 02:36:06;;;;;;;11.95;4.05;;;12.20;99.90;;;;;;5024459;28;20475;-50
2022/10/17 02:38:33;;;;;;;10.73;3.90;;;12.00;99.90;;;;;;5025523;28;20055;-46
2022/10/17 02:40:59;;;;;;;10.00;4.10;;;12.30;99.90;;;;;;5022476;28;20593;-47
2022/10/17 02:43:26;;;;;;;12.75;4.38;;;12.40;99.90;;;;;;5026675;28;20041;-48
2022/10/17 02:45:53;;;;;;;11.85;4.13;;;12.20;99.90;;;;;;5026306;28;20059;-46
2022/10/17 02:48:34;;;;;;;7.75;3.95;;;12.10;99.90;;;;;;5028056;28;20042;-47
2022/10/17 02:51:09;;;;;;;10.17;4.60;;;12.30;99.90;;;;;;5023561;28;20119;-48
2022/10/17 02:53:54;;;;;;;14.65;4.22;;;12.30;99.90;;;;;;5025733;28;20405;-45
2022/10/17 02:56:20;;;;;;;14.00;6.00;;;13.60;99.90;;;;;;5024204;28;20050;-51
2022/10/17 02:58:50;;;;;;;10.30;4.80;;;12.30;99.90;;;;;;5026424;28;20596;-46
2022/10/17 03:01:17;;;;;;;13.52;5.65;;;12.30;99.90;;;;;;5024340;28;20041;-47
2022/10/17 03:03:43;;;;;;;9.50;4.90;;;12.30;99.90;;;;;;5026522;28;20502;-49
2022/10/17 03:06:09;;;;;;;11.98;4.65;;;12.20;99.90;;;;;;5024006;28;20148;-48
2022/10/17 03:08:35;;;;;;;13.38;6.32;;;12.40;99.90;;;;;;5026551;28;20128;-47
2022/10/17 03:11:01;;;;;;;8.93;5.43;;;12.30;99.90;;;;;;5024484;28;20495;-47
2022/10/17 03:13:28;;;;;;;15.18;6.88;;;12.40;99.90;;;;;;5025104;28;20105;-48
2022/10/17 03:15:55;;;;;;;14.63;6.30;;;12.50;99.90;;;;;;5024934;28;20473;-50
2022/10/17 03:18:21;;;;;;;10.30;5.88;;;12.30;99.90;;;;;;5024167;28;20041;-47
2022/10/17 03:20:47;;;;;;;18.13;6.32;;;12.30;99.90;;;;;;5022004;28;20411;-48
2022/10/17 03:23:13;;;;;;;10.07;6.40;;;13.30;99.90;;;;;;5023789;28;20176;-44
2022/10/17 03:25:38;;;;;;;12.98;7.13;;;12.50;99.90;;;;;;5025569;28;20056;-50
2022/10/17 03:28:04;;;;;;;11.43;7.47;;;12.40;99.90;;;;;;5026189;28;20336;-49
2022/10/17 03:30:31;;;;;;;13.50;8.20;;;13.20;99.90;;;;;;5025128;28;20033;-51
2022/10/17 03:32:58;;;;;;;10.32;7.15;;;12.50;99.90;;;;;;5024379;28;20057;-48
2022/10/17 03:35:24;;;;;;;14.90;7.63;;;12.40;99.90;;;;;;5024037;28;20068;-45
2022/10/17 03:37:50;;;;;;;13.48;7.63;;;12.40;99.90;;;;;;5022437;28;20040;-51
2022/10/17 03:40:16;;;;;;;15.32;8.10;;;12.60;99.90;;;;;;5023611;28;20049;-50
2022/10/17 03:42:41;;;;;;;12.45;7.88;;;12.50;99.90;;;;;;5026497;28;20072;-51
2022/10/17 03:45:07;;;;;;;15.70;8.15;;;12.50;99.90;;;;;;5025413;28;20502;-48
2022/10/17 03:47:33;;;;;;;16.13;8.95;;;12.50;99.90;;;;;;5026178;28;20042;-49
2022/10/17 03:49:59;;;;;;;16.52;9.07;;;14.60;99.90;;;;;;5028694;28;20041;-46
2022/10/17 03:52:24;;;;;;;15.50;9.32;;;12.70;99.90;;;;;;5024625;28;20053;-48
2022/10/17 03:54:50;;;;;;;16.50;8.63;;;12.70;99.90;;;;;;5024911;28;20144;-49
2022/10/17 03:57:17;;;;;;;13.15;9.40;;;12.90;99.90;;;;;;5028013;28;20045;-48
2022/10/17 03:59:43;;;;;;;13.07;9.05;;;12.70;99.90;;;;;;5023466;28;20038;-46
2022/10/17 04:02:08;;;;;;;14.65;9.50;;;12.70;99.90;;;;;;5024439;28;20052;-48
2022/10/17 04:04:34;;;;;;;15.57;10.35;;;12.90;99.90;;;;;;5021254;28;20040;-46
2022/10/17 04:07:00;;;;;;;12.65;10.25;;;12.60;99.90;;;;;;5026695;28;20395;-50
2022/10/17 04:09:26;;;;;;;21.05;10.25;;;13.00;99.90;;;;;;5025242;28;20112;-50
2022/10/17 04:11:51;;;;;;;14.32;11.20;;;12.80;99.90;;;;;;5023594;28;20064;-49
2022/10/17 04:14:17;;;;;;;15.88;10.50;;;12.80;99.90;;;;;;5024288;28;20053;-49
2022/10/17 04:16:43;;;;;;;15.80;10.60;;;12.80;99.90;;;;;;5023257;28;20037;-49
2022/10/17 04:19:12;;;;;;;16.52;11.50;;;13.00;99.90;;;;;;5022591;28;20040;-48
2022/10/17 04:21:38;;;;;;;16.42;11.60;;;12.80;99.90;;;;;;5019793;28;20080;-50
2022/10/17 04:24:04;;;;;;;16.23;10.80;;;12.90;99.90;;;;;;5025424;28;20136;-50
2022/10/17 04:26:29;;;;;;;15.50;11.82;;;13.00;99.90;;;;;;5022312;28;20108;-47
2022/10/17 04:28:55;;;;;;;18.48;12.43;;;14.80;99.90;;;;;;5021199;28;20045;-49
2022/10/17 04:31:21;;;;;;;17.25;11.68;;;14.50;99.90;;;;;;5022349;28;20049;-46
2022/10/17 04:33:48;;;;;;;21.77;13.68;;;13.00;99.90;;;;;;5026000;28;20565;-49
2022/10/17 04:36:17;;;;;;;16.15;12.95;;;13.00;99.90;;;;;;5025856;28;20033;-48
2022/10/17 04:38:42;;;;;;;18.05;14.35;;;13.00;99.90;;;;;;5021532;28;20601;-50
2022/10/17 04:41:14;;;;;;;16.35;12.93;;;13.00;99.90;;;;;;5023164;28;20041;-47
2022/10/17 04:43:40;;;;;;;15.17;13.57;;;13.10;99.90;;;;;;5025325;28;20775;-47
2022/10/17 04:46:11;;;;;;;21.25;14.82;;;13.10;99.90;;;;;;5020269;28;20084;-47
2022/10/17 04:48:38;;;;;;;17.60;14.60;;;13.20;99.90;;;;;;5023604;28;20144;-47
2022/10/17 04:51:11;;;;;;;17.83;15.15;;;12.90;99.90;;;;;;5023102;28;21366;-51
2022/10/17 04:53:39;;;;;;;17.95;14.60;;;13.10;99.90;;;;;;5023739;28;20037;-49
2022/10/17 04:56:10;;;;;;;21.30;16.08;;;13.20;99.90;;;;;;5022923;28;20045;-49
2022/10/17 04:58:36;;;;;;;21.20;16.77;;;13.10;99.90;;;;;;5024074;28;20069;-49
2022/10/17 05:01:13;;;;;;;21.27;16.08;;;13.20;99.90;;;;;;5021381;28;21175;-49
2022/10/17 05:03:39;;;;;;;19.08;16.23;;;13.30;99.90;;;;;;5025128;28;20526;-46
2022/10/17 05:06:10;;;;;;;22.98;16.30;;;13.30;99.90;;;;;;5023183;28;20045;-49
2022/10/17 05:08:36;;;;;;;19.90;16.73;;;13.30;99.90;;;;;;5025485;28;20140;-50
2022/10/17 05:11:02;;;;;;;25.55;17.77;;;13.20;99.90;;;;;;5027025;28;20089;-46
2022/10/17 05:13:29;;;;;;;22.65;17.48;;;13.30;99.90;;;;;;5019834;28;20862;-48
2022/10/17 05:15:58;;;;;;;20.73;17.17;;;11.50;99.90;;;;;;5027060;28;20436;-49
2022/10/17 05:18:24;;;;;;;22.35;16.45;;;13.40;99.90;;;;;;5025068;28;20816;-51
2022/10/17 05:20:50;;;;;;;19.50;16.08;;;13.50;99.90;;;;;;5023189;28;20034;-46
2022/10/17 05:23:15;;;;;;;21.23;16.70;;;13.50;99.90;;;;;;5023321;28;20044;-49
2022/10/17 05:25:41;;;;;;;23.40;17.48;;;13.50;99.90;;;;;;5024555;28;20037;-50
2022/10/17 05:28:07;;;;;;;20.40;16.60;;;13.40;99.90;;;;;;5027148;28;20033;-48
2022/10/17 05:30:35;;;;;;;20.75;16.50;;;13.40;99.90;;;;;;5027010;28;20085;-49
2022/10/17 05:33:01;;;;;;;22.13;15.95;;;13.50;99.90;;;;;;5026316;28;20396;-49
2022/10/17 05:35:27;;;;;;;26.17;17.08;;;13.40;99.90;;;;;;5026197;28;20055;-46
2022/10/17 05:37:53;;;;;;;21.95;17.92;;;13.40;99.90;;;;;;5027229;28;20383;-46
2022/10/17 05:40:19;;;;;;;22.00;15.85;;;13.40;99.90;;;;;;5025583;28;20068;-49
2022/10/17 05:42:46;;;;;;;24.73;17.25;;;13.50;99.90;;;;;;5022723;28;20052;-49
2022/10/17 05:45:13;;;;;;;21.00;17.60;;;13.40;99.90;;;;;;5027714;28;20033;-50
2022/10/17 05:47:39;;;;;;;20.42;15.13;;;13.50;99.90;;;;;;5024349;28;20046;-46
2022/10/17 05:50:05;;;;;;;22.08;18.45;;;13.40;99.90;;;;;;5024100;28;20502;-50
2022/10/17 05:52:31;;;;;;;26.60;17.90;;;13.50;99.90;;;;;;5025544;28;20041;-46
2022/10/17 05:54:57;;;;;;;20.20;17.35;;;13.70;99.90;;;;;;5025899;28;20740;-51
2022/10/17 05:57:25;;;;;;;19.73;17.60;;;13.60;99.90;;;;;;5026315;28;20042;-50
2022/10/17 05:59:51;;;;;;;22.83;17.50;;;13.50;99.90;;;;;;5025135;28;20043;-50
2022/10/17 06:02:17;;;;;;;24.70;17.48;;;13.40;99.90;;;;;;5025834;28;20040;-49
2022/10/17 06:04:44;;;;;;;19.92;17.00;;;13.60;99.90;;;;;;5022770;28;20455;-46
2022/10/17 06:07:14;;;;;;;28.77;18.98;;;13.50;99.90;;;;;;5023678;28;20053;-51
2022/10/17 06:09:40;;;;;;;25.17;18.23;;;13.60;99.90;;;;;;5023694;28;20707;-51
2022/10/17 06:12:06;;;;;;;25.48;17.67;;;13.40;99.90;;;;;;5021884;28;20056;-51
2022/10/17 06:14:32;;;;;;;22.02;18.02;;;13.50;99.90;;;;;;5022575;28;20048;-49
2022/10/17 06:16:58;;;;;;;22.73;17.20;;;13.50;99.90;;;;;;5024406;28;20049;-47
2022/10/17 06:19:24;;;;;;;21.83;17.63;;;13.50;99.90;;;;;;5019154;28;20045;-47
2022/10/17 06:21:49;;;;;;;23.85;18.50;;;13.60;99.90;;;;;;5026764;28;21231;-50
2022/10/17 06:24:15;;;;;;;23.23;17.17;;;15.20;99.90;;;;;;5023780;28;20033;-46
2022/10/17 06:26:41;;;;;;;26.10;16.80;;;13.50;99.90;;;;;;5024553;28;20059;-51
2022/10/17 06:29:07;;;;;;;23.40;17.88;;;13.60;99.90;;;;;;5022687;28;20526;-46
2022/10/17 06:31:32;;;;;;;25.08;17.90;;;13.50;99.90;;;;;;5022418;28;20444;-46
2022/10/17 06:33:58;;;;;;;24.55;17.30;;;13.60;99.90;;;;;;5024880;28;20037;-51
2022/10/17 06:36:24;;;;;;;25.52;17.45;;;13.60;99.90;;;;;;5026332;28;20106;-47
2022/10/17 06:38:49;;;;;;;20.80;17.08;;;13.60;99.90;;;;;;5026749;28;20083;-47
2022/10/17 06:41:18;;;;;;;21.15;17.27;;;13.80;99.90;;;;;;5021111;28;20048;-46
2022/10/17 06:43:45;;;;;;;23.42;17.55;;;13.70;99.90;;;;;;5023704;28;20045;-51
2022/10/17 06:46:12;;;;;;;24.95;18.02;;;13.70;99.90;;;;;;5027248;28;20080;-47
2022/10/17 06:48:38;;;;;;;25.65;17.92;;;13.40;99.90;;;;;;5025642;28;20094;-49
2022/10/17 06:51:05;;;;;;;25.25;19.13;;;13.60;99.90;;;;;;5026227;28;20037;-47
2022/10/17 06:53:33;;;;;;;23.92;17.15;;;13.80;99.90;;;;;;5024509;28;20135;-46
2022/10/17 06:56:03;;;;;;;25.35;16.77;;;15.70;99.90;;;;;;5024826;28;20045;-50
2022/10/17 06:58:40;;;;;;;23.73;17.67;;;13.70;99.90;;;;;;5025523;28;20120;-51
2022/10/17 07:01:11;;;;;;;22.02;17.08;;;13.90;99.90;;;;;;5025748;28;20045;-46
2022/10/17 07:03:37;;;;;;;21.55;16.05;;;13.80;99.90;;;;;;5018734;28;20113;-46
2022/10/17 07:06:04;;;;;;;26.05;16.95;;;13.70;99.90;;;;;;5023112;28;20067;-47
2022/10/17 07:08:29;;;;;;;21.05;17.40;;;13.90;99.90;;;;;;5020307;28;20033;-47
2022/10/17 07:10:56;;;;;;;19.75;15.93;;;14.00;99.90;;;;;;5023691;28;20041;-49
2022/10/17 07:13:22;;;;;;;20.08;15.45;;;14.00;99.90;;;;;;5027087;28;20975;-49
2022/10/17 07:15:47;;;;;;;20.75;16.38;;;14.00;99.90;;;;;;5025186;28;20087;-48
2022/10/17 07:18:13;;;;;;;22.17;14.90;;;14.20;99.90;;;;;;5022248;28;20053;-48
2022/10/17 07:20:39;;;;;;;20.05;14.13;;;14.10;99.90;;;;;;5024651;28;20045;-46
2022/10/17 07:23:05;;;;;;;19.77;14.35;;;14.40;99.90;;;;;;5024023;28;20137;-46
2022/10/17 07:25:31;;;;;;;16.95;12.82;;;14.30;99.90;;;;;;5020717;28;20102;-48
2022/10/17 07:27:57;;;;;;;19.65;13.60;;;14.60;99.90;;;;;;5023470;28;20036;-48
2022/10/17 07:30:23;;;;;;;18.90;13.45;;;14.60;99.90;;;;;;5022954;28;20051;-48
2022/10/17 07:32:52;;;;;;;19.65;14.23;;;14.70;99.90;;;;;;5018741;28;20051;-46
2022/10/17 07:35:18;;;;;;;16.58;13.10;;;14.90;99.90;;;;;;5021340;28;20076;-46
2022/10/17 07:37:43;;;;;;;20.05;13.18;;;14.80;99.90;;;;;;5023425;28;20604;-52
2022/10/17 07:40:10;;;;;;;18.88;12.77;;;15.10;99.90;;;;;;5020798;28;20153;-54
2022/10/17 07:42:36;;;;;;;18.73;12.13;;;15.10;99.90;;;;;;5020989;28;20033;-51
2022/10/17 07:45:02;;;;;;;14.95;11.65;;;15.20;99.90;;;;;;5027439;28;20143;-53
2022/10/17 07:47:29;;;;;;;16.98;11.38;;;15.20;99.90;;;;;;5023621;28;20045;-48
2022/10/17 07:49:56;;;;;;;17.83;12.40;;;15.20;99.90;;;;;;5024573;28;20048;-50
2022/10/17 07:52:22;;;;;;;14.65;11.10;;;15.20;99.90;;;;;;5023020;28;20049;-53
2022/10/17 07:54:48;;;;;;;15.55;10.98;;;16.70;99.90;;;;;;5024983;28;20045;-50
2022/10/17 07:57:14;;;;;;;17.30;11.38;;;15.40;99.90;;;;;;5023280;28;20098;-52
2022/10/17 07:59:39;;;;;;;14.80;9.98;;;15.30;99.90;;;;;;5022996;28;20358;-50
2022/10/17 08:02:06;;;;;;;12.20;10.02;;;15.60;99.90;;;;;;5023910;28;20056;-51
2022/10/17 08:04:33;;;;;;;14.35;9.88;;;15.90;99.90;;;;;;5024137;28;20105;-52
2022/10/17 08:06:59;;;;;;;13.52;9.90;;;16.10;99.90;;;;;;5026525;28;20765;-52
2022/10/17 08:09:25;;;;;;;18.80;9.88;;;16.20;99.90;;;;;;5022521;28;20105;-53
2022/10/17 08:11:51;;;;;;;11.98;8.57;;;16.20;99.90;;;;;;5022699;28;20424;-50
2022/10/17 08:14:17;;;;;;;11.95;8.63;;;16.30;99.90;;;;;;5024832;28;20052;-52
2022/10/17 08:16:42;;;;;;;16.30;8.65;;;16.30;99.90;;;;;;5024582;28;20057;-50
2022/10/17 08:19:10;;;;;;;12.00;7.60;;;16.60;99.90;;;;;;5027035;28;20053;-50
2022/10/17 08:21:36;;;;;;;13.48;7.88;;;16.40;99.90;;;;;;5022312;28;20060;-53
2022/10/17 08:24:03;;;;;;;10.73;8.05;;;16.40;99.90;;;;;;5020372;28;20245;-53
2022/10/17 08:26:29;;;;;;;13.15;7.88;;;16.50;99.90;;;;;;5025376;28;20116;-52
2022/10/17 08:28:55;;;;;;;11.60;8.07;;;16.40;99.90;;;;;;5022340;28;20570;-53
2022/10/17 08:31:21;;;;;;;13.45;8.02;;;16.60;99.90;;;;;;5028856;28;20117;-53
2022/10/17 08:33:48;;;;;;;12.05;7.60;;;16.60;99.90;;;;;;5023219;28;20037;-50
2022/10/17 08:36:16;;;;;;;10.25;7.88;;;16.60;99.90;;;;;;5023289;28;20040;-53
2022/10/17 08:38:42;;;;;;;11.50;8.38;;;16.70;99.90;;;;;;5024893;28;20189;-53
2022/10/17 08:41:24;;;;;;;12.25;7.43;;;16.80;99.90;;;;;;5024138;28;20166;-52
2022/10/17 08:44:05;;;;;;;13.88;8.20;;;16.90;99.90;;;;;;5023669;28;20467;-54
2022/10/17 08:46:36;;;;;;;13.13;7.97;;;16.60;99.90;;;;;;5025886;28;20033;-49
2022/10/17 08:49:05;;;;;;;14.23;8.20;;;16.80;99.90;;;;;;5025702;28;20045;-49
2022/10/17 08:51:33;;;;;;;15.25;7.45;;;16.60;99.90;;;;;;5025839;28;20577;-50
2022/10/17 08:54:14;;;;;;;12.55;7.70;;;16.70;99.90;;;;;;5024960;28;20044;-49
2022/10/17 08:56:44;;;;;;;15.80;8.13;;;16.80;99.90;;;;;;5024475;28;20075;-52
2022/10/17 08:59:16;;;;;;;15.93;8.65;;;16.90;99.90;;;;;;5025080;28;20060;-51
2022/10/17 09:02:00;;;;;;;13.05;7.32;;;16.80;99.90;;;;;;5026811;28;20933;-52
2022/10/17 09:04:32;;;;;;;13.02;8.13;;;16.80;99.90;;;;;;5027941;28;20054;-52
2022/10/17 09:07:15;;;;;;;10.57;7.10;;;16.90;99.90;;;;;;5025962;28;20058;-50
2022/10/17 09:10:08;;;;;;;14.07;7.50;;;16.70;99.90;;;;;;5025343;28;21038;-51
2022/10/17 09:12:36;;;;;;;10.30;7.45;;;16.80;99.90;;;;;;5025042;28;20041;-48
2022/10/17 09:15:36;;;;;;;12.80;7.82;;;16.80;99.90;;;;;;5025361;28;20036;-52
2022/10/17 09:18:26;;;;;;;9.95;6.93;;;16.70;99.90;;;;;;5026147;28;20045;-49
2022/10/17 09:20:57;;;;;;;10.68;7.32;;;16.80;99.90;;;;;;5026860;28;20069;-50
2022/10/17 09:23:36;;;;;;;14.15;7.40;;;16.90;99.90;;;;;;5024712;28;20673;-49
2022/10/17 09:26:02;;;;;;;11.45;7.97;;;16.80;99.90;;;;;;5024766;28;20117;-53
2022/10/17 09:28:36;;;;;;;15.93;8.55;;;16.80;99.90;;;;;;5020953;28;20037;-53
2022/10/17 09:31:19;;;;;;;11.32;8.27;;;16.80;99.90;;;;;;5025369;28;20473;-50
2022/10/17 09:33:47;;;;;;;16.48;8.95;;;16.90;99.90;;;;;;5023587;28;20044;-54
2022/10/17 09:36:23;;;;;;;14.90;8.60;;;16.80;99.90;;;;;;5027336;28;20047;-48
2022/10/17 09:38:53;;;;;;;14.60;8.80;;;16.50;99.90;;;;;;5023329;28;20040;-53
2022/10/17 09:41:26;;;;;;;10.20;8.60;;;16.60;99.90;;;;;;5026770;28;20045;-54
2022/10/17 09:43:55;;;;;;;14.20;8.73;;;17.80;99.90;;;;;;5024856;28;20506;-50
2022/10/17 09:46:36;;;;;;;16.60;9.75;;;16.70;99.90;;;;;;5024924;28;20052;-54
2022/10/17 09:49:15;;;;;;;14.45;9.18;;;16.40;99.90;;;;;;5024459;28;20037;-55
2022/10/17 09:51:42;;;;;;;15.05;9.65;;;16.40;99.90;;;;;;5024527;28;20061;-55
2022/10/17 09:54:22;;;;;;;13.52;10.63;;;16.30;99.90;;;;;;5028878;28;20044;-56
2022/10/17 09:57:07;;;;;;;14.30;10.80;;;16.30;99.90;;;;;;5024162;28;20037;-56
2022/10/17 09:59:40;;;;;;;19.27;10.55;;;16.40;99.90;;;;;;5024874;28;20056;-57
2022/10/17 10:02:18;;;;;;;14.85;11.02;;;16.20;99.90;;;;;;5025841;28;20048;-54
2022/10/17 10:05:05;;;;;;;16.15;11.93;;;16.10;99.90;;;;;;5023351;28;21475;-54
2022/10/17 10:07:34;;;;;;;15.38;11.13;;;16.10;99.90;;;;;;5022145;28;20037;-52
2022/10/17 10:10:01;;;;;;;19.42;12.70;;;16.10;99.90;;;;;;5018648;28;20038;-50
2022/10/17 10:12:38;;;;;;;16.77;12.63;;;16.20;99.90;;;;;;5018202;28;20042;-50
2022/10/17 10:15:34;;;;;;;19.67;12.43;;;16.10;99.90;;;;;;5017088;28;20060;-49
2022/10/17 10:18:00;;;;;;;18.25;12.50;;;16.30;99.90;;;;;;5016391;28;20116;-54
2022/10/17 10:20:33;;;;;;;19.75;12.30;;;16.00;99.90;;;;;;5019595;28;20045;-54
2022/10/17 10:23:20;;;;;;;15.63;11.35;;;16.00;99.90;;;;;;5015886;27;20431;-53
2022/10/17 10:25:55;;;;;;;20.70;12.95;;;15.90;99.90;;;;;;5017948;28;20071;-53
2022/10/17 10:28:25;;;;;;;16.42;12.45;;;16.10;99.90;;;;;;5010776;28;20044;-55
2022/10/17 10:30:53;;;;;;;17.83;11.77;;;16.00;99.90;;;;;;5020038;28;20060;-53
2022/10/17 10:33:25;;;;;;;21.85;12.82;;;15.80;99.90;;;;;;4999188;27;20526;-53
2022/10/17 10:36:03;;;;;;;17.58;13.05;;;16.10;99.90;;;;;;5027782;28;20048;-53
2022/10/17 10:38:31;;;;;;;16.45;12.52;;;16.10;99.90;;;;;;5024277;28;20056;-54
2022/10/17 10:41:08;;;;;;;18.20;12.20;;;16.10;99.90;;;;;;5010686;28;20048;-55
2022/10/17 10:43:42;;;;;;;19.27;13.13;;;16.10;99.90;;;;;;5019630;28;20084;-55
2022/10/17 10:46:21;;;;;;;18.73;12.48;;;16.20;99.90;;;;;;5021920;28;20083;-55
2022/10/17 10:48:55;;;;;;;18.88;13.20;;;16.20;99.90;;;;;;5023679;28;20049;-54
2022/10/17 10:51:40;;;;;;;16.08;12.63;;;16.10;99.90;;;;;;5025646;28;20504;-55
2022/10/17 10:54:24;;;;;;;14.30;11.98;;;16.00;99.90;;;;;;5020122;28;20049;-54
2022/10/17 10:56:53;;;;;;;19.10;12.90;;;16.00;99.90;;;;;;5024711;28;20072;-52
2022/10/17 10:59:28;;;;;;;23.63;13.98;;;16.20;99.90;;;;;;5026728;28;20064;-55
2022/10/17 11:02:19;;;;;;;20.90;13.75;;;16.20;99.90;;;;;;5022336;28;20315;-54
2022/10/17 11:05:10;;;;;;;19.83;12.80;;;16.20;99.90;;;;;;5024263;28;21059;-56
2022/10/17 11:07:42;;;;;;;16.27;12.30;;;16.10;99.90;;;;;;5023846;28;20045;-56
2022/10/17 11:10:31;;;;;;;20.23;13.30;;;16.40;99.90;;;;;;5023429;28;20115;-54
2022/10/17 11:13:25;;;;;;;24.30;13.32;;;16.10;99.90;;;;;;5023385;28;20052;-57
2022/10/17 11:16:09;;;;;;;18.30;13.10;;;16.30;99.90;;;;;;5017676;27;20049;-55
2022/10/17 11:18:49;;;;;;;18.55;12.98;;;16.10;99.90;;;;;;5020642;28;20076;-55
2022/10/17 11:21:27;;;;;;;17.40;11.82;;;16.30;99.90;;;;;;5021244;28;21070;-56
2022/10/17 11:24:07;;;;;;;18.67;12.50;;;16.40;99.90;;;;;;5017321;28;20124;-57
2022/10/17 11:26:43;;;;;;;14.98;11.88;;;16.20;99.90;;;;;;5023585;28;20047;-57
2022/10/17 11:29:11;;;;;;;16.58;11.80;;;16.10;99.90;;;;;;5023276;28;21602;-56
2022/10/17 11:31:46;;;;;;;18.15;12.13;;;16.20;99.90;;;;;;5000663;28;20475;-57
2022/10/17 11:34:27;;;;;;;15.43;10.13;;;16.30;99.90;;;;;;5020265;28;20120;-56
2022/10/17 11:37:04;;;;;;;13.27;9.70;;;16.20;99.90;;;;;;5022199;28;20599;-57
2022/10/17 11:39:43;;;;;;;14.25;9.93;;;16.30;99.90;;;;;;5023054;28;20164;-56
2022/10/17 11:42:19;;;;;;;15.95;11.02;;;16.20;99.90;;;;;;5021801;28;20054;-56
2022/10/17 11:44:48;;;;;;;16.15;11.07;;;16.20;99.90;;;;;;5023093;28;20045;-56
2022/10/17 11:47:20;;;;;;;12.20;9.02;;;16.30;99.90;;;;;;5018960;28;20312;-56
2022/10/17 11:50:25;;;;;;;11.23;8.90;;;16.40;99.90;;;;;;5023990;28;20044;-56
2022/10/17 11:53:02;;;;;;;9.80;7.50;;;16.20;99.90;;;;;;5020254;28;20516;-56
2022/10/17 11:55:30;;;;;;;9.60;6.50;;;16.30;99.90;;;;;;5023182;28;20581;-57
2022/10/17 11:58:34;;;;;;;9.80;6.30;;;16.20;99.90;;;;;;5025031;28;20177;-56
2022/10/17 12:01:31;;;;;;;10.13;6.38;;;16.40;99.90;;;;;;5021795;28;20312;-56
2022/10/17 12:04:26;;;;;;;13.68;6.25;;;16.30;99.90;;;;;;5024383;28;20136;-55
2022/10/17 12:07:06;;;;;;;10.95;6.68;;;16.30;99.90;;;;;;5022190;28;20059;-55
2022/10/17 12:09:45;;;;;;;9.52;6.40;;;16.40;99.90;;;;;;5021792;28;20406;-56
2022/10/17 12:12:29;;;;;;;11.05;6.55;;;16.30;99.90;;;;;;5022391;28;20076;-56
2022/10/17 12:15:18;;;;;;;9.45;7.22;;;16.40;99.90;;;;;;5002598;28;20146;-55
2022/10/17 12:17:45;;;;;;;14.18;8.23;;;16.60;99.90;;;;;;5025312;28;20064;-55
2022/10/17 12:20:20;;;;;;;11.13;7.93;;;16.60;99.90;;;;;;5025183;28;20052;-55
2022/10/17 12:23:11;;;;;;;9.77;7.38;;;16.60;99.90;;;;;;5022317;28;20041;-56
2022/10/17 12:26:13;;;;;;;8.90;6.20;;;16.70;99.90;;;;;;5023093;28;20642;-56
2022/10/17 12:28:46;;;;;;;8.77;6.07;;;16.70;99.90;;;;;;5022775;28;20045;-57
2022/10/17 12:31:15;;;;;;;9.73;5.75;;;16.50;99.90;;;;;;5022879;28;20558;-56
2022/10/17 12:34:16;;;;;;;11.65;5.65;;;16.70;99.90;;;;;;5018340;28;20746;-56
2022/10/17 12:36:41;;;;;;;6.80;4.85;;;16.60;99.90;;;;;;5018675;28;20419;-56
2022/10/17 12:39:10;;;;;;;8.43;4.95;;;16.60;99.90;;;;;;5019521;28;20030;-56
2022/10/17 12:41:39;;;;;;;9.45;5.50;;;16.50;99.90;;;;;;5023310;28;20049;-56
2022/10/17 12:44:13;;;;;;;7.30;4.80;;;16.40;99.90;;;;;;5018836;28;20161;-56
2022/10/17 12:47:04;;;;;;;10.18;5.22;;;16.40;99.90;;;;;;5022024;28;20045;-57
2022/10/17 12:49:37;;;;;;;7.35;5.10;;;16.30;99.90;;;;;;5022094;28;20113;-57
2022/10/17 12:52:17;;;;;;;9.95;5.78;;;16.40;99.90;;;;;;5021990;28;20037;-56
2022/10/17 12:54:47;;;;;;;8.27;4.88;;;16.60;99.90;;;;;;5021865;28;20414;-57
2022/10/17 12:57:21;;;;;;;9.98;4.68;;;16.30;99.90;;;;;;5024152;28;20041;-56